createdAt,value
2023-04-18T00:00:40.017Z,5.60
2023-04-18T00:01:40.079Z,5.90
2023-04-18T00:02:40.432Z,6.60
2023-04-18T00:03:40.200Z,5.50
2023-04-18T00:04:40.032Z,6.60
2023-04-18T00:05:39.965Z,7.30
2023-04-18T00:06:39.960Z,7.80
2023-04-18T00:07:39.946Z,7.00
2023-04-18T00:08:39.933Z,6.50
2023-04-18T00:09:39.974Z,7.40
2023-04-18T00:10:39.905Z,10.40
2023-04-18T00:11:39.909Z,8.50
2023-04-18T00:12:39.900Z,9.00
2023-04-18T00:13:39.874Z,7.70
2023-04-18T00:14:39.865Z,7.60
2023-04-18T00:15:39.859Z,7.00
2023-04-18T00:16:39.896Z,7.00
2023-04-18T00:17:40.078Z,6.50
2023-04-18T00:18:39.833Z,5.50
2023-04-18T00:19:39.825Z,6.50
2023-04-18T00:20:39.798Z,6.40
2023-04-18T00:21:39.788Z,6.40
2023-04-18T00:22:39.800Z,7.90
2023-04-18T00:23:39.819Z,7.70
2023-04-18T00:24:39.757Z,7.00
2023-04-18T00:25:39.747Z,6.70
2023-04-18T00:26:39.729Z,6.60
2023-04-18T00:27:39.748Z,5.30
2023-04-18T00:28:39.731Z,5.70
2023-04-18T00:29:39.702Z,5.40
2023-04-18T00:30:39.710Z,5.60
2023-04-18T00:31:39.689Z,5.20
2023-04-18T00:32:39.723Z,4.90
2023-04-18T00:33:39.655Z,4.30
2023-04-18T00:34:39.675Z,4.00
2023-04-18T00:35:39.631Z,4.00
2023-04-18T00:36:39.624Z,4.20
2023-04-18T00:37:39.631Z,4.00
2023-04-18T00:38:39.607Z,3.90
2023-04-18T00:39:39.591Z,3.70
2023-04-18T00:40:39.580Z,4.00
2023-04-18T00:41:39.577Z,4.00
2023-04-18T00:42:47.068Z,5.60
2023-04-18T00:43:39.543Z,4.90
2023-04-18T00:44:39.536Z,5.30
2023-04-18T00:45:39.533Z,6.70
2023-04-18T00:46:39.559Z,6.80
2023-04-18T00:47:39.513Z,6.60
2023-04-18T00:48:39.492Z,6.40
2023-04-18T00:49:39.476Z,6.20
2023-04-18T00:50:39.502Z,6.40
2023-04-18T00:51:39.459Z,6.90
2023-04-18T00:52:39.461Z,8.20
2023-04-18T00:53:39.440Z,9.30
2023-04-18T00:54:39.437Z,9.00
2023-04-18T00:55:39.424Z,7.70
2023-04-18T00:56:39.407Z,8.70
2023-04-18T00:57:39.415Z,7.80
2023-04-18T00:58:39.383Z,6.90
2023-04-18T00:59:39.368Z,6.70
2023-04-18T01:00:39.379Z,10.30
2023-04-18T01:01:39.394Z,11.10
2023-04-18T01:02:39.446Z,9.50
2023-04-18T01:03:39.533Z,7.80
2023-04-18T01:04:39.389Z,8.50
2023-04-18T01:05:39.315Z,9.70
2023-04-18T01:06:39.324Z,9.10
2023-04-18T01:07:39.283Z,8.00
2023-04-18T01:08:39.868Z,7.40
2023-04-18T01:09:39.273Z,6.60
2023-04-18T01:10:39.263Z,5.70
2023-04-18T01:11:39.237Z,4.90
2023-04-18T01:12:39.233Z,4.60
2023-04-18T01:13:39.256Z,8.50
2023-04-18T01:14:39.218Z,5.60
2023-04-18T01:15:39.230Z,5.00
2023-04-18T01:16:39.192Z,4.60
2023-04-18T01:17:39.209Z,4.90
2023-04-18T01:18:39.175Z,4.50
2023-04-18T01:19:39.167Z,4.10
2023-04-18T01:20:39.140Z,4.40
2023-04-18T01:21:39.127Z,5.10
2023-04-18T01:22:39.149Z,4.70
2023-04-18T01:23:39.119Z,4.50
2023-04-18T01:24:39.124Z,4.20
2023-04-18T01:25:39.087Z,4.40
2023-04-18T01:26:39.086Z,4.60
2023-04-18T01:27:39.070Z,4.80
2023-04-18T01:28:39.060Z,4.60
2023-04-18T01:29:39.127Z,5.40
2023-04-18T01:30:39.049Z,5.50
2023-04-18T01:31:39.166Z,5.00
2023-04-18T01:32:39.148Z,4.80
2023-04-18T01:33:39.011Z,6.10
2023-04-18T01:34:39.022Z,5.90
2023-04-18T01:35:39.019Z,4.80
2023-04-18T01:36:39.109Z,5.20
2023-04-18T01:37:38.949Z,5.30
2023-04-18T01:38:38.994Z,5.40
2023-04-18T01:39:38.945Z,5.00
2023-04-18T01:40:38.944Z,5.40
2023-04-18T01:41:38.907Z,6.60
2023-04-18T01:42:38.897Z,6.40
2023-04-18T01:43:38.896Z,6.10
2023-04-18T01:44:38.892Z,6.60
2023-04-18T01:45:38.860Z,7.40
2023-04-18T01:46:38.884Z,7.30
2023-04-18T01:47:38.884Z,7.50
2023-04-18T01:48:38.861Z,7.00
2023-04-18T01:49:38.830Z,7.40
2023-04-18T01:50:38.814Z,8.90
2023-04-18T01:51:38.879Z,9.00
2023-04-18T01:52:38.794Z,8.30
2023-04-18T01:53:38.777Z,7.20
2023-04-18T01:54:38.803Z,7.40
2023-04-18T01:55:38.767Z,7.70
2023-04-18T01:56:38.757Z,7.40
2023-04-18T01:57:38.730Z,7.70
2023-04-18T01:58:38.724Z,6.90
2023-04-18T01:59:38.808Z,7.00
2023-04-18T02:00:38.773Z,9.10
2023-04-18T02:01:38.715Z,8.60
2023-04-18T02:02:38.805Z,7.50
2023-04-18T02:03:38.913Z,7.20
2023-04-18T02:04:38.670Z,8.00
2023-04-18T02:05:38.645Z,7.90
2023-04-18T02:06:38.638Z,7.70
2023-04-18T02:07:38.624Z,7.90
2023-04-18T02:08:38.623Z,8.20
2023-04-18T02:09:38.614Z,6.80
2023-04-18T02:10:38.618Z,7.70
2023-04-18T02:11:38.582Z,7.90
2023-04-18T02:12:38.567Z,7.60
2023-04-18T02:13:38.565Z,7.80
2023-04-18T02:14:38.560Z,7.50
2023-04-18T02:15:38.538Z,6.90
2023-04-18T02:16:38.589Z,7.10
2023-04-18T02:17:38.563Z,7.30
2023-04-18T02:18:38.525Z,8.40
2023-04-18T02:19:38.531Z,7.30
2023-04-18T02:20:38.537Z,6.80
2023-04-18T02:21:38.485Z,7.10
2023-04-18T02:22:38.470Z,6.40
2023-04-18T02:23:38.474Z,6.50
2023-04-18T02:24:38.440Z,7.10
2023-04-18T02:25:38.448Z,8.00
2023-04-18T02:26:38.452Z,9.80
2023-04-18T02:27:38.404Z,8.20
2023-04-18T02:28:38.412Z,8.70
2023-04-18T02:29:38.397Z,7.90
2023-04-18T02:30:38.378Z,9.60
2023-04-18T02:31:38.387Z,8.60
2023-04-18T02:32:38.368Z,7.30
2023-04-18T02:33:38.352Z,7.50
2023-04-18T02:34:38.335Z,6.20
2023-04-18T02:35:38.336Z,6.40
2023-04-18T02:36:38.313Z,6.80
2023-04-18T02:37:38.877Z,6.70
2023-04-18T02:38:38.309Z,5.90
2023-04-18T02:39:38.275Z,6.60
2023-04-18T02:40:38.267Z,6.50
2023-04-18T02:41:38.284Z,6.30
2023-04-18T02:42:38.263Z,6.60
2023-04-18T02:43:45.738Z,5.60
2023-04-18T02:44:38.231Z,6.30
2023-04-18T02:45:38.239Z,6.30
2023-04-18T02:46:38.203Z,6.70
2023-04-18T02:47:51.202Z,7.10
2023-04-18T02:48:38.185Z,7.20
2023-04-18T02:49:38.168Z,8.20
2023-04-18T02:50:38.175Z,8.30
2023-04-18T02:51:38.142Z,7.80
2023-04-18T02:52:38.169Z,7.80
2023-04-18T02:53:38.123Z,8.90
2023-04-18T02:54:38.113Z,10.00
2023-04-18T02:55:38.113Z,8.70
2023-04-18T02:56:38.096Z,8.70
2023-04-18T02:57:38.075Z,10.10
2023-04-18T02:58:38.117Z,9.30
2023-04-18T02:59:38.061Z,8.80
2023-04-18T03:00:38.055Z,8.90
2023-04-18T03:01:38.094Z,10.80
2023-04-18T03:02:38.054Z,10.00
2023-04-18T03:03:38.026Z,9.30
2023-04-18T03:04:38.073Z,9.40
2023-04-18T03:05:38.002Z,8.50
2023-04-18T03:06:37.982Z,8.60
2023-04-18T03:07:37.974Z,9.10
2023-04-18T03:08:37.968Z,9.30
2023-04-18T03:09:37.956Z,8.50
2023-04-18T03:10:37.940Z,7.50
2023-04-18T03:11:37.926Z,7.50
2023-04-18T03:12:37.917Z,7.10
2023-04-18T03:13:37.918Z,9.90
2023-04-18T03:14:37.924Z,10.40
2023-04-18T03:15:37.951Z,12.20
2023-04-18T03:16:37.905Z,11.60
2023-04-18T03:17:37.915Z,13.60
2023-04-18T03:18:37.867Z,10.80
2023-04-18T03:19:37.845Z,8.80
2023-04-18T03:20:37.843Z,9.90
2023-04-18T03:21:37.825Z,8.40
2023-04-18T03:22:37.834Z,7.70
2023-04-18T03:23:37.793Z,8.70
2023-04-18T03:24:37.788Z,8.50
2023-04-18T03:25:37.785Z,9.40
2023-04-18T03:26:37.765Z,9.40
2023-04-18T03:27:37.750Z,9.80
2023-04-18T03:28:37.766Z,9.90
2023-04-18T03:29:37.734Z,9.30
2023-04-18T03:30:37.741Z,9.10
2023-04-18T03:31:37.809Z,10.90
2023-04-18T03:32:37.710Z,11.20
2023-04-18T03:33:37.718Z,13.20
2023-04-18T03:34:37.691Z,13.70
2023-04-18T03:35:37.671Z,14.40
2023-04-18T03:36:37.662Z,14.10
2023-04-18T03:37:37.644Z,14.40
2023-04-18T03:38:37.646Z,13.00
2023-04-18T03:39:37.632Z,12.10
2023-04-18T03:40:37.630Z,12.20
2023-04-18T03:41:37.603Z,13.90
2023-04-18T03:42:37.598Z,11.90
2023-04-18T03:43:37.580Z,10.20
2023-04-18T03:44:37.573Z,9.40
2023-04-18T03:45:37.572Z,8.90
2023-04-18T03:46:37.684Z,9.50
2023-04-18T03:47:37.580Z,10.00
2023-04-18T03:48:37.553Z,8.60
2023-04-18T03:49:37.530Z,9.30
2023-04-18T03:50:37.508Z,10.00
2023-04-18T03:51:37.501Z,8.90
2023-04-18T03:52:37.492Z,9.00
2023-04-18T03:53:37.471Z,9.20
2023-04-18T03:54:37.473Z,10.30
2023-04-18T03:55:37.453Z,9.10
2023-04-18T03:56:37.445Z,8.00
2023-04-18T03:57:37.442Z,7.30
2023-04-18T03:58:37.422Z,7.40
2023-04-18T03:59:37.421Z,7.40
2023-04-18T04:00:37.431Z,7.30
2023-04-18T04:01:37.410Z,6.60
2023-04-18T04:02:37.544Z,7.20
2023-04-18T04:03:37.655Z,7.50
2023-04-18T04:04:37.429Z,7.10
2023-04-18T04:05:37.345Z,7.20
2023-04-18T04:06:37.439Z,7.30
2023-04-18T04:07:37.323Z,8.30
2023-04-18T04:08:37.313Z,8.60
2023-04-18T04:09:37.323Z,9.40
2023-04-18T04:10:37.295Z,10.60
2023-04-18T04:11:37.288Z,10.70
2023-04-18T04:12:37.272Z,16.10
2023-04-18T04:13:37.264Z,13.10
2023-04-18T04:14:37.269Z,14.40
2023-04-18T04:15:37.237Z,14.10
2023-04-18T04:16:37.259Z,13.50
2023-04-18T04:17:37.235Z,11.50
2023-04-18T04:18:37.243Z,10.80
2023-04-18T04:19:37.200Z,9.50
2023-04-18T04:20:37.189Z,9.80
2023-04-18T04:21:37.197Z,10.90
2023-04-18T04:22:37.177Z,11.60
2023-04-18T04:23:37.150Z,13.30
2023-04-18T04:24:37.141Z,11.20
2023-04-18T04:25:37.130Z,10.30
2023-04-18T04:26:37.139Z,9.70
2023-04-18T04:27:37.115Z,10.20
2023-04-18T04:28:37.111Z,11.50
2023-04-18T04:29:37.092Z,11.70
2023-04-18T04:30:37.087Z,10.60
2023-04-18T04:31:37.150Z,10.00
2023-04-18T04:32:37.069Z,9.50
2023-04-18T04:33:37.055Z,8.80
2023-04-18T04:34:37.055Z,8.90
2023-04-18T04:35:37.024Z,8.40
2023-04-18T04:36:37.021Z,9.00
2023-04-18T04:37:36.996Z,8.80
2023-04-18T04:38:36.996Z,8.70
2023-04-18T04:39:36.976Z,9.00
2023-04-18T04:40:36.978Z,8.80
2023-04-18T04:41:36.950Z,8.90
2023-04-18T04:42:36.960Z,9.20
2023-04-18T04:43:36.930Z,10.70
2023-04-18T04:44:44.472Z,9.90
2023-04-18T04:45:36.942Z,9.90
2023-04-18T04:46:36.908Z,10.60
2023-04-18T04:47:36.905Z,10.00
2023-04-18T04:48:36.872Z,10.50
2023-04-18T04:49:36.869Z,11.80
2023-04-18T04:50:36.883Z,12.70
2023-04-18T04:51:36.851Z,13.30
2023-04-18T04:52:36.840Z,15.20
2023-04-18T04:53:36.833Z,14.20
2023-04-18T04:54:36.817Z,13.50
2023-04-18T04:55:36.800Z,14.30
2023-04-18T04:56:36.789Z,13.80
2023-04-18T04:57:36.792Z,13.30
2023-04-18T04:58:36.766Z,13.00
2023-04-18T04:59:36.755Z,11.90
2023-04-18T05:00:36.743Z,13.30
2023-04-18T05:01:36.773Z,12.00
2023-04-18T05:02:36.948Z,12.10
2023-04-18T05:03:36.965Z,12.20
2023-04-18T05:04:36.811Z,10.50
2023-04-18T05:05:36.691Z,10.90
2023-04-18T05:06:38.363Z,10.40
2023-04-18T05:07:36.672Z,11.00
2023-04-18T05:08:36.683Z,11.40
2023-04-18T05:09:36.652Z,10.90
2023-04-18T05:10:36.644Z,10.70
2023-04-18T05:11:36.660Z,10.90
2023-04-18T05:12:36.611Z,10.60
2023-04-18T05:13:36.610Z,11.10
2023-04-18T05:14:36.589Z,11.30
2023-04-18T05:15:36.588Z,10.70
2023-04-18T05:16:36.603Z,10.60
2023-04-18T05:17:36.601Z,14.00
2023-04-18T05:18:36.581Z,14.90
2023-04-18T05:19:36.541Z,14.70
2023-04-18T05:20:36.535Z,18.90
2023-04-18T05:21:36.546Z,19.10
2023-04-18T05:22:36.526Z,16.20
2023-04-18T05:23:36.499Z,16.60
2023-04-18T05:24:36.482Z,15.50
2023-04-18T05:25:36.517Z,14.10
2023-04-18T05:26:36.481Z,12.90
2023-04-18T05:27:36.452Z,11.90
2023-04-18T05:28:36.449Z,13.30
2023-04-18T05:29:36.439Z,13.80
2023-04-18T05:30:36.453Z,13.60
2023-04-18T05:31:36.584Z,13.30
2023-04-18T05:32:36.407Z,11.90
2023-04-18T05:33:36.386Z,12.20
2023-04-18T05:34:38.014Z,14.30
2023-04-18T05:35:36.389Z,11.20
2023-04-18T05:36:36.362Z,11.00
2023-04-18T05:37:36.362Z,17.60
2023-04-18T05:38:36.356Z,14.70
2023-04-18T05:39:36.336Z,11.30
2023-04-18T05:40:36.311Z,10.20
2023-04-18T05:41:36.312Z,10.50
2023-04-18T05:42:36.324Z,10.20
2023-04-18T05:43:36.297Z,10.00
2023-04-18T05:44:36.267Z,10.40
2023-04-18T05:45:36.300Z,11.00
2023-04-18T05:46:36.294Z,10.40
2023-04-18T05:47:36.297Z,10.10
2023-04-18T05:48:36.225Z,10.00
2023-04-18T05:49:36.228Z,10.40
2023-04-18T05:50:36.258Z,9.30
2023-04-18T05:51:36.197Z,9.20
2023-04-18T05:52:36.206Z,10.20
2023-04-18T05:53:36.180Z,11.50
2023-04-18T05:54:36.234Z,10.50
2023-04-18T05:55:36.175Z,9.90
2023-04-18T05:56:36.148Z,11.10
2023-04-18T05:57:36.203Z,10.10
2023-04-18T05:58:36.135Z,10.00
2023-04-18T05:59:36.131Z,9.90
2023-04-18T06:00:36.104Z,10.00
2023-04-18T06:01:36.094Z,9.60
2023-04-18T06:02:36.197Z,9.70
2023-04-18T06:03:36.378Z,10.10
2023-04-18T06:04:36.169Z,10.80
2023-04-18T06:05:36.276Z,11.20
2023-04-18T06:06:36.060Z,14.10
2023-04-18T06:07:36.062Z,12.80
2023-04-18T06:08:36.013Z,13.00
2023-04-18T06:09:37.117Z,12.30
2023-04-18T06:10:38.423Z,13.80
2023-04-18T06:11:35.994Z,14.90
2023-04-18T06:12:35.985Z,13.40
2023-04-18T06:13:35.957Z,13.80
2023-04-18T06:14:35.946Z,14.30
2023-04-18T06:15:35.945Z,16.60
2023-04-18T06:16:35.944Z,15.80
2023-04-18T06:17:36.001Z,14.50
2023-04-18T06:18:35.966Z,14.60
2023-04-18T06:19:35.908Z,13.80
2023-04-18T06:20:35.877Z,10.50
2023-04-18T06:21:35.892Z,11.30
2023-04-18T06:22:35.856Z,11.20
2023-04-18T06:23:35.859Z,12.40
2023-04-18T06:24:35.831Z,13.00
2023-04-18T06:25:35.827Z,12.30
2023-04-18T06:26:35.827Z,10.50
2023-04-18T06:27:35.811Z,12.60
2023-04-18T06:28:35.824Z,14.50
2023-04-18T06:29:36.847Z,12.50
2023-04-18T06:30:35.766Z,13.20
2023-04-18T06:31:35.804Z,13.60
2023-04-18T06:32:35.835Z,16.30
2023-04-18T06:33:35.742Z,14.40
2023-04-18T06:34:35.725Z,14.30
2023-04-18T06:35:35.714Z,15.50
2023-04-18T06:36:35.714Z,14.30
2023-04-18T06:37:35.698Z,15.00
2023-04-18T06:38:35.716Z,13.70
2023-04-18T06:39:35.710Z,14.60
2023-04-18T06:40:35.708Z,12.40
2023-04-18T06:41:36.497Z,12.90
2023-04-18T06:42:35.817Z,13.20
2023-04-18T06:43:35.656Z,14.70
2023-04-18T06:44:35.695Z,13.00
2023-04-18T06:45:42.688Z,11.60
2023-04-18T06:46:35.664Z,12.20
2023-04-18T06:47:35.634Z,15.90
2023-04-18T06:48:35.574Z,14.90
2023-04-18T06:49:35.596Z,17.10
2023-04-18T06:50:35.559Z,17.60
2023-04-18T06:51:35.565Z,20.20
2023-04-18T06:52:35.532Z,19.90
2023-04-18T06:53:35.516Z,15.70
2023-04-18T06:54:35.507Z,13.90
2023-04-18T06:55:35.495Z,12.10
2023-04-18T06:56:36.593Z,11.60
2023-04-18T06:57:35.497Z,12.40
2023-04-18T06:58:35.551Z,13.50
2023-04-18T06:59:35.454Z,11.80
2023-04-18T07:00:35.440Z,11.30
2023-04-18T07:01:35.522Z,12.70
2023-04-18T07:02:35.568Z,15.30
2023-04-18T07:03:35.566Z,12.90
2023-04-18T07:04:35.494Z,14.30
2023-04-18T07:05:35.389Z,13.20
2023-04-18T07:06:35.375Z,12.70
2023-04-18T07:07:35.393Z,11.40
2023-04-18T07:08:35.357Z,12.70
2023-04-18T07:09:35.380Z,14.10
2023-04-18T07:10:35.330Z,13.40
2023-04-18T07:11:35.337Z,15.60
2023-04-18T07:12:35.408Z,14.80
2023-04-18T07:13:35.321Z,13.40
2023-04-18T07:14:36.146Z,14.60
2023-04-18T07:15:35.302Z,16.80
2023-04-18T07:16:35.296Z,16.10
2023-04-18T07:17:35.315Z,15.00
2023-04-18T07:18:38.279Z,15.60
2023-04-18T07:19:35.235Z,14.90
2023-04-18T07:20:35.245Z,12.20
2023-04-18T07:21:35.225Z,14.10
2023-04-18T07:22:35.201Z,13.50
2023-04-18T07:23:35.218Z,12.30
2023-04-18T07:24:35.240Z,12.60
2023-04-18T07:25:35.171Z,13.40
2023-04-18T07:26:35.153Z,14.40
2023-04-18T07:27:35.243Z,13.40
2023-04-18T07:28:35.154Z,13.70
2023-04-18T07:29:35.141Z,13.70
2023-04-18T07:30:35.334Z,12.30
2023-04-18T07:31:35.150Z,12.60
2023-04-18T07:32:35.161Z,11.40
2023-04-18T07:33:35.089Z,11.80
2023-04-18T07:34:35.078Z,11.10
2023-04-18T07:35:35.084Z,11.80
2023-04-18T07:36:35.070Z,11.40
2023-04-18T07:37:35.061Z,11.50
2023-04-18T07:38:35.051Z,11.80
2023-04-18T07:39:35.028Z,11.70
2023-04-18T07:40:35.026Z,11.30
2023-04-18T07:41:35.000Z,10.80
2023-04-18T07:42:34.990Z,11.10
2023-04-18T07:43:34.973Z,11.20
2023-04-18T07:44:34.967Z,11.00
2023-04-18T07:45:34.978Z,11.10
2023-04-18T07:46:34.994Z,11.30
2023-04-18T07:47:34.990Z,11.30
2023-04-18T07:48:35.168Z,11.30
2023-04-18T07:49:34.905Z,11.30
2023-04-18T07:50:34.906Z,10.70
2023-04-18T07:51:34.947Z,10.90
2023-04-18T07:52:34.892Z,11.50
2023-04-18T07:53:34.863Z,11.30
2023-04-18T07:54:34.853Z,11.20
2023-04-18T07:55:34.876Z,11.40
2023-04-18T07:56:34.849Z,11.50
2023-04-18T07:57:34.823Z,11.60
2023-04-18T07:58:34.814Z,11.30
2023-04-18T07:59:34.827Z,11.70
2023-04-18T08:00:35.312Z,11.90
2023-04-18T08:01:34.838Z,11.70
2023-04-18T08:02:34.949Z,11.80
2023-04-18T08:03:34.851Z,11.50
2023-04-18T08:04:34.935Z,10.90
2023-04-18T08:05:35.039Z,11.30
2023-04-18T08:06:35.214Z,11.00
2023-04-18T08:07:34.736Z,11.00
2023-04-18T08:08:34.698Z,11.80
2023-04-18T08:09:34.703Z,10.70
2023-04-18T08:10:34.712Z,11.30
2023-04-18T08:11:34.679Z,10.90
2023-04-18T08:12:34.658Z,11.10
2023-04-18T08:13:34.646Z,10.90
2023-04-18T08:14:34.647Z,10.50
2023-04-18T08:15:34.634Z,11.00
2023-04-18T08:16:34.657Z,11.50
2023-04-18T08:17:34.653Z,11.30
2023-04-18T08:18:34.620Z,12.00
2023-04-18T08:19:34.610Z,11.90
2023-04-18T08:20:34.680Z,12.00
2023-04-18T08:21:34.561Z,10.40
2023-04-18T08:22:34.549Z,11.80
2023-04-18T08:23:34.548Z,11.70
2023-04-18T08:24:34.526Z,11.10
2023-04-18T08:25:34.523Z,11.60
2023-04-18T08:26:34.567Z,11.10
2023-04-18T08:27:34.506Z,11.80
2023-04-18T08:28:34.493Z,11.90
2023-04-18T08:29:34.480Z,12.40
2023-04-18T08:30:34.988Z,14.60
2023-04-18T08:31:34.479Z,13.00
2023-04-18T08:32:34.476Z,12.30
2023-04-18T08:33:34.677Z,12.10
2023-04-18T08:34:34.466Z,12.20
2023-04-18T08:35:34.408Z,12.20
2023-04-18T08:36:34.413Z,12.10
2023-04-18T08:37:34.398Z,10.70
2023-04-18T08:38:34.552Z,11.80
2023-04-18T08:39:34.376Z,13.50
2023-04-18T08:40:34.355Z,14.90
2023-04-18T08:41:34.425Z,13.70
2023-04-18T08:42:34.377Z,13.60
2023-04-18T08:43:34.337Z,15.80
2023-04-18T08:44:34.332Z,15.10
2023-04-18T08:45:34.508Z,19.50
2023-04-18T08:46:41.810Z,14.30
2023-04-18T08:47:34.371Z,13.50
2023-04-18T08:48:34.368Z,12.60
2023-04-18T08:49:34.255Z,13.40
2023-04-18T08:50:34.258Z,13.00
2023-04-18T08:51:34.246Z,13.40
2023-04-18T08:52:34.265Z,13.10
2023-04-18T08:53:34.226Z,12.30
2023-04-18T08:54:34.192Z,12.20
2023-04-18T08:55:34.188Z,12.20
2023-04-18T08:56:34.184Z,12.60
2023-04-18T08:57:34.171Z,17.80
2023-04-18T08:58:34.194Z,20.00
2023-04-18T08:59:34.145Z,15.80
2023-04-18T09:00:34.141Z,14.00
2023-04-18T09:01:34.131Z,12.70
2023-04-18T09:02:34.247Z,13.40
2023-04-18T09:03:34.169Z,12.90
2023-04-18T09:04:34.274Z,12.80
2023-04-18T09:05:34.114Z,12.80
2023-04-18T09:06:34.084Z,11.40
2023-04-18T09:07:34.065Z,10.90
2023-04-18T09:08:34.042Z,10.80
2023-04-18T09:09:34.029Z,11.80
2023-04-18T09:10:34.028Z,10.40
2023-04-18T09:11:34.045Z,13.00
2023-04-18T09:12:33.994Z,12.80
2023-04-18T09:13:33.990Z,12.30
2023-04-18T09:14:33.985Z,13.20
2023-04-18T09:15:33.960Z,11.50
2023-04-18T09:16:34.177Z,11.50
2023-04-18T09:17:34.053Z,11.20
2023-04-18T09:18:33.944Z,11.20
2023-04-18T09:19:33.936Z,10.80
2023-04-18T09:20:33.933Z,12.70
2023-04-18T09:21:33.906Z,12.00
2023-04-18T09:22:33.986Z,14.40
2023-04-18T09:23:33.961Z,14.10
2023-04-18T09:24:33.866Z,13.10
2023-04-18T09:25:33.900Z,11.70
2023-04-18T09:26:34.540Z,11.70
2023-04-18T09:27:33.928Z,11.50
2023-04-18T09:28:33.873Z,11.90
2023-04-18T09:29:33.822Z,11.80
2023-04-18T09:30:33.853Z,11.20
2023-04-18T09:31:33.825Z,11.50
2023-04-18T09:32:33.862Z,10.90
2023-04-18T09:33:33.787Z,11.80
2023-04-18T09:34:34.080Z,12.90
2023-04-18T09:35:33.741Z,12.50
2023-04-18T09:36:33.783Z,13.50
2023-04-18T09:37:34.089Z,15.20
2023-04-18T09:38:33.862Z,12.60
2023-04-18T09:39:33.729Z,11.50
2023-04-18T09:40:33.692Z,12.30
2023-04-18T09:41:33.686Z,12.50
2023-04-18T09:42:33.690Z,13.00
2023-04-18T09:43:33.655Z,11.60
2023-04-18T09:44:33.647Z,11.60
2023-04-18T09:45:33.711Z,11.40
2023-04-18T09:46:33.656Z,10.80
2023-04-18T09:47:33.656Z,10.80
2023-04-18T09:48:33.613Z,10.20
2023-04-18T09:49:33.763Z,10.30
2023-04-18T09:50:33.588Z,11.00
2023-04-18T09:51:33.586Z,10.50
2023-04-18T09:52:33.590Z,10.60
2023-04-18T09:53:33.545Z,10.10
2023-04-18T09:54:33.577Z,11.10
2023-04-18T09:55:33.558Z,10.60
2023-04-18T09:56:33.523Z,11.70
2023-04-18T09:57:33.532Z,11.10
2023-04-18T09:58:33.496Z,11.10
2023-04-18T09:59:33.532Z,10.70
2023-04-18T10:00:33.492Z,10.50
2023-04-18T10:01:33.515Z,11.50
2023-04-18T10:02:33.521Z,10.40
2023-04-18T10:03:33.711Z,10.30
2023-04-18T10:04:33.504Z,10.20
2023-04-18T10:05:33.512Z,10.20
2023-04-18T10:06:33.438Z,10.80
2023-04-18T10:07:33.390Z,10.10
2023-04-18T10:08:33.387Z,10.10
2023-04-18T10:09:33.361Z,10.70
2023-04-18T10:10:33.523Z,10.90
2023-04-18T10:11:33.367Z,10.70
2023-04-18T10:12:33.346Z,11.90
2023-04-18T10:13:33.356Z,11.00
2023-04-18T10:14:33.349Z,11.60
2023-04-18T10:15:33.317Z,11.80
2023-04-18T10:16:34.954Z,11.20
2023-04-18T10:17:33.296Z,11.10
2023-04-18T10:18:33.321Z,10.70
2023-04-18T10:19:33.267Z,10.30
2023-04-18T10:20:33.280Z,10.70
2023-04-18T10:21:33.233Z,11.10
2023-04-18T10:22:33.223Z,11.40
2023-04-18T10:23:33.317Z,11.40
2023-04-18T10:24:33.215Z,11.40
2023-04-18T10:25:33.205Z,11.00
2023-04-18T10:26:33.206Z,10.30
2023-04-18T10:27:33.183Z,10.90
2023-04-18T10:28:33.162Z,10.50
2023-04-18T10:29:33.161Z,10.40
2023-04-18T10:30:33.145Z,10.20
2023-04-18T10:31:33.188Z,10.90
2023-04-18T10:32:33.159Z,10.80
2023-04-18T10:33:33.726Z,10.90
2023-04-18T10:34:33.110Z,10.20
2023-04-18T10:35:33.091Z,11.20
2023-04-18T10:36:33.189Z,10.90
2023-04-18T10:37:33.061Z,11.10
2023-04-18T10:38:33.072Z,11.20
2023-04-18T10:39:33.056Z,10.10
2023-04-18T10:40:33.038Z,10.60
2023-04-18T10:41:33.071Z,10.40
2023-04-18T10:42:33.127Z,10.30
2023-04-18T10:43:33.010Z,9.70
2023-04-18T10:44:32.992Z,10.80
2023-04-18T10:45:32.981Z,10.30
2023-04-18T10:46:33.114Z,10.30
2023-04-18T10:47:40.633Z,10.40
2023-04-18T10:48:32.951Z,10.80
2023-04-18T10:49:33.100Z,10.20
2023-04-18T10:50:32.940Z,10.10
2023-04-18T10:51:32.910Z,10.70
2023-04-18T10:52:32.916Z,9.50
2023-04-18T10:53:32.885Z,10.20
2023-04-18T10:54:32.892Z,10.40
2023-04-18T10:55:32.868Z,9.80
2023-04-18T10:56:32.859Z,9.80
2023-04-18T10:57:32.866Z,9.90
2023-04-18T10:58:32.872Z,9.60
2023-04-18T10:59:32.891Z,9.50
2023-04-18T11:00:32.826Z,9.90
2023-04-18T11:01:33.320Z,9.60
2023-04-18T11:02:33.073Z,9.50
2023-04-18T11:03:32.866Z,9.60
2023-04-18T11:04:32.801Z,9.20
2023-04-18T11:05:32.784Z,9.80
2023-04-18T11:06:32.750Z,9.50
2023-04-18T11:07:33.579Z,9.30
2023-04-18T11:08:32.729Z,9.70
2023-04-18T11:09:32.745Z,9.70
2023-04-18T11:10:32.703Z,9.10
2023-04-18T11:11:32.707Z,9.90
2023-04-18T11:12:32.704Z,9.20
2023-04-18T11:13:32.685Z,9.10
2023-04-18T11:14:32.713Z,9.30
2023-04-18T11:15:32.667Z,8.40
2023-04-18T11:16:32.759Z,9.60
2023-04-18T11:17:32.712Z,9.60
2023-04-18T11:18:32.616Z,9.30
2023-04-18T11:19:32.614Z,9.30
2023-04-18T11:20:32.634Z,8.80
2023-04-18T11:21:32.628Z,9.30
2023-04-18T11:22:32.587Z,9.10
2023-04-18T11:23:32.575Z,8.30
2023-04-18T11:24:32.552Z,8.70
2023-04-18T11:25:32.543Z,8.70
2023-04-18T11:26:32.573Z,8.60
2023-04-18T11:27:32.516Z,9.20
2023-04-18T11:28:32.510Z,9.60
2023-04-18T11:29:32.498Z,9.10
2023-04-18T11:30:32.619Z,9.10
2023-04-18T11:31:32.502Z,8.80
2023-04-18T11:32:32.535Z,8.80
2023-04-18T11:33:32.493Z,9.60
2023-04-18T11:34:32.492Z,9.10
2023-04-18T11:35:32.453Z,8.90
2023-04-18T11:36:32.417Z,9.00
2023-04-18T11:37:32.417Z,8.30
2023-04-18T11:38:32.409Z,8.90
2023-04-18T11:39:32.390Z,8.90
2023-04-18T11:40:32.405Z,8.60
2023-04-18T11:41:32.359Z,8.40
2023-04-18T11:42:32.370Z,8.90
2023-04-18T11:43:32.337Z,8.30
2023-04-18T11:44:34.338Z,8.00
2023-04-18T11:45:32.314Z,8.60
2023-04-18T11:46:32.548Z,8.70
2023-04-18T11:47:32.327Z,8.80
2023-04-18T11:48:32.304Z,8.90
2023-04-18T11:49:32.278Z,8.40
2023-04-18T11:50:32.288Z,8.40
2023-04-18T11:51:32.262Z,8.70
2023-04-18T11:52:32.243Z,8.50
2023-04-18T11:53:32.238Z,8.60
2023-04-18T11:54:32.219Z,9.00
2023-04-18T11:55:32.216Z,8.30
2023-04-18T11:56:33.508Z,8.80
2023-04-18T11:57:32.182Z,9.00
2023-04-18T11:58:32.180Z,8.90
2023-04-18T11:59:32.162Z,8.30
2023-04-18T12:00:32.175Z,8.10
2023-04-18T12:01:32.138Z,8.70
2023-04-18T12:02:32.479Z,9.40
2023-04-18T12:03:32.306Z,9.80
2023-04-18T12:04:32.247Z,9.10
2023-04-18T12:05:32.346Z,9.60
2023-04-18T12:06:32.267Z,9.10
2023-04-18T12:07:32.080Z,9.70
2023-04-18T12:08:32.122Z,10.80
2023-04-18T12:09:32.076Z,10.10
2023-04-18T12:10:32.050Z,10.00
2023-04-18T12:11:32.061Z,8.30
2023-04-18T12:12:32.028Z,9.20
2023-04-18T12:13:32.041Z,8.90
2023-04-18T12:14:32.011Z,8.70
2023-04-18T12:15:32.016Z,8.50
2023-04-18T12:16:32.056Z,8.30
2023-04-18T12:17:31.988Z,9.90
2023-04-18T12:18:31.984Z,9.70
2023-04-18T12:19:31.956Z,9.80
2023-04-18T12:20:31.951Z,10.10
2023-04-18T12:21:31.932Z,10.50
2023-04-18T12:22:31.916Z,9.10
2023-04-18T12:23:31.938Z,8.40
2023-04-18T12:24:31.909Z,8.20
2023-04-18T12:25:31.916Z,8.80
2023-04-18T12:26:31.872Z,9.20
2023-04-18T12:27:31.855Z,9.20
2023-04-18T12:28:31.859Z,9.10
2023-04-18T12:29:31.851Z,9.20
2023-04-18T12:30:31.844Z,9.30
2023-04-18T12:31:31.861Z,8.40
2023-04-18T12:32:31.845Z,9.20
2023-04-18T12:33:31.853Z,8.50
2023-04-18T12:34:31.810Z,9.90
2023-04-18T12:35:31.788Z,10.40
2023-04-18T12:36:31.772Z,10.30
2023-04-18T12:37:31.740Z,12.30
2023-04-18T12:38:31.735Z,11.80
2023-04-18T12:39:31.721Z,10.90
2023-04-18T12:40:31.743Z,9.60
2023-04-18T12:41:31.701Z,13.20
2023-04-18T12:42:31.691Z,10.80
2023-04-18T12:43:31.686Z,10.20
2023-04-18T12:44:31.664Z,10.60
2023-04-18T12:45:31.670Z,13.00
2023-04-18T12:46:31.687Z,11.20
2023-04-18T12:47:31.707Z,10.90
2023-04-18T12:48:39.138Z,9.20
2023-04-18T12:49:31.608Z,8.50
2023-04-18T12:50:31.623Z,8.10
2023-04-18T12:51:31.709Z,8.10
2023-04-18T12:52:31.594Z,8.00
2023-04-18T12:53:31.582Z,8.10
2023-04-18T12:54:31.562Z,8.00
2023-04-18T12:55:31.549Z,7.90
2023-04-18T12:56:31.541Z,7.90
2023-04-18T12:57:31.954Z,8.20
2023-04-18T12:58:31.529Z,7.90
2023-04-18T12:59:31.513Z,8.20
2023-04-18T13:00:31.555Z,8.40
2023-04-18T13:01:31.516Z,7.70
2023-04-18T13:02:31.600Z,8.00
2023-04-18T13:03:31.668Z,8.50
2023-04-18T13:04:31.877Z,8.00